Time;durP1;ratioP1;P1;durP2;ratioP2;P2;SDS_P1;SDS_P2;PMS_P1;PMS_P2;Temp;Humidity;BMP_temperature;BMP_pressure;BME280_temperature;BME280_humidity;BME280_pressure;Samples;Min_cycle;Max_cycle;Signal;HPM_P1;HPM_P2
2020/12/15 00:00:08;;;;;;;80.80;52.70;;;6.50;99.90;;;;;;5057410;28;20090;-74
2020/12/15 00:02:34;;;;;;;80.78;52.53;;;6.50;99.90;;;;;;5055957;28;20032;-74
2020/12/15 00:05:00;;;;;;;79.00;51.65;;;6.50;99.90;;;;;;5056063;28;20029;-74
2020/12/15 00:07:25;;;;;;;82.63;52.65;;;6.40;99.90;;;;;;5057375;28;20112;-75
2020/12/15 00:09:51;;;;;;;79.75;50.20;;;6.40;99.90;;;;;;5055774;28;20037;-74
2020/12/15 00:12:16;;;;;;;72.72;49.65;;;6.40;99.90;;;;;;5055682;28;20386;-74
2020/12/15 00:14:42;;;;;;;80.05;50.55;;;6.40;99.90;;;;;;5056417;28;20025;-74
2020/12/15 00:17:08;;;;;;;78.28;51.20;;;6.40;99.90;;;;;;5055652;28;20488;-74
2020/12/15 00:19:33;;;;;;;76.22;52.03;;;6.40;99.90;;;;;;5055431;28;20021;-75
2020/12/15 00:21:59;;;;;;;77.20;49.80;;;6.40;99.90;;;;;;5058270;28;20037;-74
2020/12/15 00:24:24;;;;;;;73.22;49.25;;;6.40;99.90;;;;;;5055838;28;20033;-74
2020/12/15 00:26:50;;;;;;;78.15;50.40;;;6.40;99.90;;;;;;5059477;28;20039;-74
2020/12/15 00:29:16;;;;;;;73.22;49.47;;;6.50;99.90;;;;;;5056285;28;20100;-75
2020/12/15 00:31:43;;;;;;;70.50;47.15;;;6.50;99.90;;;;;;5055228;28;20104;-74
2020/12/15 00:34:09;;;;;;;73.40;47.47;;;6.40;99.90;;;;;;5055456;28;20094;-74
2020/12/15 00:36:34;;;;;;;70.43;47.63;;;6.40;99.90;;;;;;5056935;28;20080;-74
2020/12/15 00:39:00;;;;;;;74.53;48.25;;;6.50;99.90;;;;;;5057363;28;20021;-75
2020/12/15 00:41:27;;;;;;;69.10;46.97;;;6.50;99.90;;;;;;5060830;28;20040;-75
2020/12/15 00:43:52;;;;;;;70.60;48.60;;;6.50;99.90;;;;;;5056306;28;20115;-74
2020/12/15 00:46:18;;;;;;;76.90;50.50;;;6.40;99.90;;;;;;5055376;28;20394;-74
2020/12/15 00:48:44;;;;;;;69.82;47.15;;;6.40;99.90;;;;;;5053707;28;20067;-75
2020/12/15 00:51:18;;;;;;;75.00;48.30;;;6.40;99.90;;;;;;5055063;28;20025;-75
2020/12/15 00:53:44;;;;;;;71.78;48.03;;;6.50;99.90;;;;;;5053862;28;20048;-75
2020/12/15 00:56:10;;;;;;;69.53;47.10;;;6.50;99.90;;;;;;5058301;28;20031;-74
2020/12/15 00:58:36;;;;;;;73.65;47.67;;;6.50;99.90;;;;;;5056206;28;20044;-75
2020/12/15 01:01:04;;;;;;;71.15;48.95;;;6.50;99.90;;;;;;5056845;28;20390;-74
2020/12/15 01:03:30;;;;;;;74.78;48.30;;;6.50;99.90;;;;;;5054935;28;20127;-75
2020/12/15 01:05:57;;;;;;;70.72;48.40;;;6.50;99.90;;;;;;5055196;28;20067;-74
2020/12/15 01:08:22;;;;;;;75.25;49.78;;;6.50;99.90;;;;;;5057476;28;20021;-74
2020/12/15 01:10:49;;;;;;;71.45;47.83;;;6.50;99.90;;;;;;5054555;28;20138;-74
2020/12/15 01:13:14;;;;;;;72.75;47.97;;;6.50;99.90;;;;;;5057995;28;20382;-74
2020/12/15 01:15:40;;;;;;;71.47;46.78;;;6.50;99.90;;;;;;5057198;28;20490;-74
2020/12/15 01:18:05;;;;;;;71.82;48.58;;;6.40;99.90;;;;;;5054248;28;20025;-74
2020/12/15 01:20:31;;;;;;;72.10;48.58;;;6.40;99.90;;;;;;5053740;28;20418;-74
2020/12/15 01:22:57;;;;;;;69.43;47.65;;;6.50;99.90;;;;;;5055222;28;20067;-74
2020/12/15 01:25:22;;;;;;;73.72;47.85;;;6.50;99.90;;;;;;5055432;28;20017;-74
2020/12/15 01:27:48;;;;;;;70.55;46.20;;;6.50;99.90;;;;;;5057885;28;20441;-74
2020/12/15 01:30:13;;;;;;;74.07;47.60;;;6.60;99.90;;;;;;5053332;28;20044;-74
2020/12/15 01:32:39;;;;;;;69.57;47.60;;;6.60;99.90;;;;;;5055793;28;20025;-74
2020/12/15 01:35:04;;;;;;;77.43;48.13;;;6.50;99.90;;;;;;5054227;28;20028;-74
2020/12/15 01:37:30;;;;;;;72.88;44.88;;;6.50;99.90;;;;;;5054474;28;20031;-74
2020/12/15 01:39:56;;;;;;;67.25;44.35;;;6.60;99.90;;;;;;5052986;28;20025;-74
2020/12/15 01:42:21;;;;;;;60.65;41.40;;;6.60;99.90;;;;;;5053508;28;20035;-74
2020/12/15 01:44:47;;;;;;;66.13;45.25;;;6.60;99.90;;;;;;5057035;28;20029;-74
2020/12/15 01:47:14;;;;;;;70.25;44.53;;;6.70;99.90;;;;;;5054593;28;20090;-74
2020/12/15 01:49:41;;;;;;;63.58;43.35;;;6.70;99.90;;;;;;5053868;28;20044;-74
2020/12/15 01:52:07;;;;;;;66.13;43.53;;;6.70;99.90;;;;;;5054208;28;20039;-74
2020/12/15 01:54:33;;;;;;;66.63;43.58;;;6.60;99.90;;;;;;5056590;28;20115;-75
2020/12/15 01:56:59;;;;;;;62.95;43.70;;;6.60;99.90;;;;;;5054281;28;20025;-74
2020/12/15 01:59:27;;;;;;;64.90;43.35;;;6.60;99.90;;;;;;5056834;28;20023;-75
2020/12/15 02:01:52;;;;;;;72.05;45.80;;;6.60;99.90;;;;;;5056369;28;20025;-74
2020/12/15 02:04:18;;;;;;;73.35;47.10;;;6.50;99.90;;;;;;5052595;28;20083;-75
2020/12/15 02:06:47;;;;;;;65.57;46.13;;;6.50;99.90;;;;;;5052377;28;20056;-74
2020/12/15 02:09:13;;;;;;;69.00;46.45;;;6.50;99.90;;;;;;5056039;28;20112;-74
2020/12/15 02:11:39;;;;;;;73.20;45.85;;;6.50;99.90;;;;;;5054847;28;20029;-74
2020/12/15 02:14:05;;;;;;;71.15;47.13;;;6.40;99.90;;;;;;5057628;28;20052;-75
2020/12/15 02:16:31;;;;;;;74.30;48.90;;;6.50;99.90;;;;;;5054601;28;20025;-74
2020/12/15 02:18:57;;;;;;;78.10;51.50;;;6.50;99.90;;;;;;5055069;28;20017;-75
2020/12/15 02:21:23;;;;;;;75.78;50.03;;;6.60;99.90;;;;;;5055018;28;20120;-74
2020/12/15 02:23:48;;;;;;;82.50;51.40;;;6.60;99.90;;;;;;5052624;28;20025;-74
2020/12/15 02:26:14;;;;;;;68.55;45.40;;;6.70;99.90;;;;;;5052496;28;20529;-74
2020/12/15 02:28:41;;;;;;;64.50;43.97;;;6.70;99.90;;;;;;5053691;28;20025;-75
2020/12/15 02:31:07;;;;;;;62.10;43.83;;;6.70;99.90;;;;;;5056145;28;20421;-75
2020/12/15 02:33:32;;;;;;;67.88;44.60;;;6.70;99.90;;;;;;5057696;28;20351;-75
2020/12/15 02:35:58;;;;;;;71.80;46.05;;;6.60;99.90;;;;;;5059133;28;20417;-74
2020/12/15 02:38:24;;;;;;;66.97;44.80;;;6.70;99.90;;;;;;5058387;28;20378;-75
2020/12/15 02:40:50;;;;;;;70.45;45.20;;;6.70;99.90;;;;;;5058295;28;20536;-75
2020/12/15 02:43:16;;;;;;;62.03;44.55;;;6.60;99.90;;;;;;5056842;28;20028;-75
2020/12/15 02:45:41;;;;;;;66.93;44.45;;;6.60;99.90;;;;;;5058198;28;20039;-74
2020/12/15 02:48:07;;;;;;;76.88;49.80;;;6.60;99.90;;;;;;5058351;28;20043;-74
2020/12/15 02:50:32;;;;;;;88.05;55.50;;;6.60;99.90;;;;;;5057623;28;20029;-75
2020/12/15 02:52:58;;;;;;;84.78;55.40;;;6.60;99.90;;;;;;5057499;28;20025;-75
2020/12/15 02:55:24;;;;;;;87.70;54.20;;;6.70;99.90;;;;;;5057151;28;20053;-74
2020/12/15 02:57:50;;;;;;;83.47;55.40;;;6.70;99.90;;;;;;5057320;28;20028;-75
2020/12/15 03:00:17;;;;;;;89.30;56.70;;;6.70;99.90;;;;;;5055888;28;20540;-75
2020/12/15 03:02:43;;;;;;;80.45;53.45;;;6.70;99.90;;;;;;5057364;28;20033;-76
2020/12/15 03:05:11;;;;;;;88.22;56.03;;;6.70;99.90;;;;;;5057112;28;20082;-74
2020/12/15 03:07:37;;;;;;;87.35;56.30;;;6.70;99.90;;;;;;5058651;28;20029;-75
2020/12/15 03:10:06;;;;;;;85.78;57.58;;;6.70;99.90;;;;;;5058125;28;20036;-74
2020/12/15 03:12:31;;;;;;;90.13;58.22;;;6.70;99.90;;;;;;5056920;28;20033;-74
2020/12/15 03:14:57;;;;;;;88.18;58.58;;;6.70;99.90;;;;;;5057008;28;20028;-74
2020/12/15 03:17:23;;;;;;;90.05;58.88;;;6.60;99.90;;;;;;5056467;28;20036;-74
2020/12/15 03:19:48;;;;;;;84.63;57.78;;;6.60;99.90;;;;;;5056943;28;20029;-75
2020/12/15 03:22:14;;;;;;;90.38;57.83;;;6.60;99.90;;;;;;5057043;28;20445;-75
2020/12/15 03:24:40;;;;;;;89.80;55.65;;;6.50;99.90;;;;;;5056942;28;20090;-75
2020/12/15 03:27:05;;;;;;;87.50;59.17;;;6.50;99.90;;;;;;5058737;28;20033;-76
2020/12/15 03:29:31;;;;;;;90.90;57.75;;;6.50;99.90;;;;;;5056402;28;20033;-74
2020/12/15 03:31:57;;;;;;;86.15;57.30;;;6.40;99.90;;;;;;5056096;28;20028;-75
2020/12/15 03:34:22;;;;;;;88.38;56.72;;;6.40;99.90;;;;;;5056424;28;20059;-75
2020/12/15 03:36:48;;;;;;;87.22;57.75;;;6.40;99.90;;;;;;5055411;28;20017;-75
2020/12/15 03:39:14;;;;;;;85.47;55.47;;;6.40;99.90;;;;;;5055036;28;20059;-75
2020/12/15 03:41:39;;;;;;;82.43;52.60;;;6.30;99.90;;;;;;5058041;28;20462;-74
2020/12/15 03:44:05;;;;;;;79.22;50.22;;;6.20;99.90;;;;;;5056327;28;20502;-75
2020/12/15 03:46:30;;;;;;;71.15;47.78;;;6.20;99.90;;;;;;5055896;28;20021;-74
2020/12/15 03:48:56;;;;;;;67.93;46.92;;;6.10;99.90;;;;;;5055514;28;20068;-74
2020/12/15 03:51:21;;;;;;;67.05;44.30;;;6.00;99.90;;;;;;5055817;28;20025;-75
2020/12/15 03:53:47;;;;;;;76.05;51.97;;;6.10;99.90;;;;;;5055846;28;20029;-74
2020/12/15 03:56:13;;;;;;;78.75;53.33;;;6.00;99.90;;;;;;5055021;28;20064;-74
2020/12/15 03:58:38;;;;;;;75.03;49.92;;;6.00;99.90;;;;;;5055850;28;20029;-76
2020/12/15 04:01:05;;;;;;;82.32;53.35;;;5.90;99.90;;;;;;5055648;28;20029;-74
2020/12/15 04:03:30;;;;;;;77.28;51.28;;;5.80;99.90;;;;;;5055653;28;20506;-74
2020/12/15 04:05:57;;;;;;;71.65;49.35;;;5.80;99.90;;;;;;5055980;28;20487;-74
2020/12/15 04:08:23;;;;;;;72.78;49.97;;;5.80;99.90;;;;;;5055223;28;20078;-75
2020/12/15 04:10:49;;;;;;;73.70;50.30;;;5.70;99.90;;;;;;5056642;28;20021;-75
2020/12/15 04:13:16;;;;;;;71.90;48.25;;;5.70;99.90;;;;;;5054139;28;20021;-75
2020/12/15 04:15:42;;;;;;;74.55;48.65;;;5.60;99.90;;;;;;5057691;28;20017;-74
2020/12/15 04:18:08;;;;;;;72.18;48.85;;;5.70;99.90;;;;;;5054912;28;20021;-75
2020/12/15 04:20:33;;;;;;;77.53;49.42;;;5.60;99.90;;;;;;5054871;28;20021;-75
2020/12/15 04:22:59;;;;;;;69.85;48.63;;;5.60;99.90;;;;;;5055508;28;20486;-75
2020/12/15 04:25:24;;;;;;;70.07;47.47;;;5.50;99.90;;;;;;5055611;28;20048;-75
2020/12/15 04:27:50;;;;;;;65.40;46.25;;;5.50;99.90;;;;;;5054501;28;20487;-74
2020/12/15 04:30:15;;;;;;;68.97;46.67;;;5.50;99.90;;;;;;5053864;28;20494;-74
2020/12/15 04:32:41;;;;;;;66.65;46.75;;;5.50;99.90;;;;;;5057222;28;20065;-74
2020/12/15 04:35:07;;;;;;;65.03;44.42;;;5.50;99.90;;;;;;5055153;28;20017;-76
2020/12/15 04:37:32;;;;;;;61.90;42.13;;;5.50;99.90;;;;;;5055238;28;20027;-75
2020/12/15 04:39:58;;;;;;;57.25;39.53;;;5.60;99.90;;;;;;5055301;28;20017;-74
2020/12/15 04:42:24;;;;;;;55.78;39.97;;;5.60;99.90;;;;;;5056282;28;20025;-75
2020/12/15 04:44:51;;;;;;;60.22;41.88;;;5.60;99.90;;;;;;5053660;28;20074;-74
2020/12/15 04:47:34;;;;;;;60.92;41.53;;;5.60;99.90;;;;;;5055085;28;20120;-75
2020/12/15 04:50:10;;;;;;;58.80;40.88;;;5.60;99.90;;;;;;5055007;28;20104;-75
2020/12/15 04:52:51;;;;;;;59.22;41.33;;;5.60;99.90;;;;;;5054252;28;20482;-74
2020/12/15 04:55:17;;;;;;;61.90;42.97;;;5.50;99.90;;;;;;5033428;28;20399;-75
2020/12/15 04:57:45;;;;;;;66.70;45.05;;;5.40;99.90;;;;;;5036060;28;20574;-75
2020/12/15 05:00:11;;;;;;;61.15;43.55;;;5.40;99.90;;;;;;5034915;28;20025;-75
2020/12/15 05:02:42;;;;;;;64.05;44.00;;;5.40;99.90;;;;;;5035122;28;20035;-75
2020/12/15 05:05:08;;;;;;;63.67;44.88;;;5.40;99.90;;;;;;5046712;28;20025;-75
2020/12/15 05:07:42;;;;;;;65.07;44.40;;;5.40;99.90;;;;;;5054654;28;20037;-75
2020/12/15 05:10:08;;;;;;;64.25;43.40;;;5.30;99.90;;;;;;5054513;28;20031;-75
2020/12/15 05:12:34;;;;;;;61.72;43.80;;;5.30;99.90;;;;;;5054579;28;20020;-75
2020/12/15 05:15:01;;;;;;;68.60;43.53;;;5.30;99.90;;;;;;5055153;28;20017;-74
2020/12/15 05:17:32;;;;;;;63.75;44.85;;;5.30;99.90;;;;;;5054198;28;20021;-74
2020/12/15 05:20:03;;;;;;;60.47;42.40;;;5.30;99.90;;;;;;5045256;28;20021;-75
2020/12/15 05:22:43;;;;;;;64.97;43.75;;;5.30;99.90;;;;;;5045585;28;20064;-74
2020/12/15 05:25:30;;;;;;;64.57;41.75;;;5.20;99.90;;;;;;5052649;28;20021;-75
2020/12/15 05:28:00;;;;;;;62.03;41.85;;;5.20;99.90;;;;;;5052239;28;20095;-75
2020/12/15 05:30:29;;;;;;;62.80;42.83;;;5.20;99.90;;;;;;5051892;28;20563;-74
2020/12/15 05:32:55;;;;;;;76.97;47.83;;;5.20;99.90;;;;;;5052099;28;20086;-74
2020/12/15 05:35:34;;;;;;;90.35;53.85;;;5.20;99.90;;;;;;5052206;28;20024;-74
2020/12/15 05:38:04;;;;;;;65.03;44.17;;;5.20;99.90;;;;;;5054908;28;20542;-74
2020/12/15 05:40:30;;;;;;;68.38;44.90;;;5.20;99.90;;;;;;5053708;28;20078;-74
2020/12/15 05:43:01;;;;;;;61.40;43.78;;;5.20;99.90;;;;;;5055007;28;20475;-74
2020/12/15 05:45:28;;;;;;;61.47;42.92;;;5.20;99.90;;;;;;5055891;28;20079;-75
2020/12/15 05:48:07;;;;;;;65.95;43.45;;;5.30;99.90;;;;;;5052115;28;20425;-75
2020/12/15 05:50:33;;;;;;;;;;;5.30;99.90;;;;;;5054125;28;20083;-75
2020/12/15 05:53:07;;;;;;;63.67;43.03;;;5.30;99.90;;;;;;5053930;28;20343;-75
2020/12/15 05:55:34;;;;;;;62.35;44.80;;;5.30;99.90;;;;;;5053780;28;20045;-74
2020/12/15 05:58:01;;;;;;;62.10;42.28;;;5.30;99.90;;;;;;5054673;28;20013;-75
2020/12/15 06:00:28;;;;;;;70.30;45.00;;;5.30;99.90;;;;;;5053365;28;20029;-75
2020/12/15 06:03:03;;;;;;;61.15;43.53;;;5.40;99.90;;;;;;5054147;28;20510;-75
2020/12/15 06:05:30;;;;;;;59.70;42.00;;;5.40;99.90;;;;;;5053825;28;20040;-76
2020/12/15 06:07:57;;;;;;;58.65;40.70;;;5.50;99.90;;;;;;5053450;28;20340;-75
2020/12/15 06:10:24;;;;;;;60.63;40.28;;;5.50;99.90;;;;;;5055726;28;20473;-76
2020/12/15 06:12:51;;;;;;;49.97;35.35;;;5.50;99.90;;;;;;5052330;28;20405;-75
2020/12/15 06:15:18;;;;;;;51.83;36.95;;;5.60;99.90;;;;;;5053307;28;20108;-76
2020/12/15 06:17:51;;;;;;;56.45;40.13;;;5.60;99.90;;;;;;5054603;28;20028;-75
2020/12/15 06:20:19;;;;;;;57.85;40.58;;;5.60;99.90;;;;;;5052202;28;20029;-75
2020/12/15 06:22:53;;;;;;;58.53;40.05;;;5.50;99.90;;;;;;5052013;28;20051;-76
2020/12/15 06:25:26;;;;;;;56.83;38.42;;;5.50;99.90;;;;;;5055945;28;20037;-75
2020/12/15 06:28:07;;;;;;;58.13;40.92;;;5.50;99.90;;;;;;5052313;28;20430;-75
2020/12/15 06:30:34;;;;;;;58.53;40.00;;;5.60;99.90;;;;;;5053902;28;20025;-74
2020/12/15 06:33:05;;;;;;;53.50;38.88;;;5.50;99.90;;;;;;5054953;28;20051;-76
2020/12/15 06:35:31;;;;;;;59.13;39.28;;;5.50;99.90;;;;;;5053393;28;20025;-74
2020/12/15 06:37:57;;;;;;;46.42;32.92;;;5.50;99.90;;;;;;5056820;28;20017;-75
2020/12/15 06:40:22;;;;;;;42.92;31.40;;;5.50;99.90;;;;;;5054371;28;20029;-74
2020/12/15 06:42:50;;;;;;;49.65;34.38;;;5.60;99.90;;;;;;5053006;28;20079;-74
2020/12/15 06:45:21;;;;;;;50.20;35.53;;;5.70;99.90;;;;;;5052188;28;20031;-75
2020/12/15 06:47:59;;;;;;;52.20;37.22;;;5.70;99.90;;;;;;5054074;28;20033;-75
2020/12/15 06:50:25;;;;;;;53.15;37.15;;;5.70;99.90;;;;;;5053791;28;20498;-74
2020/12/15 06:52:51;;;;;;;58.63;38.63;;;5.60;99.90;;;;;;5054325;28;20100;-74
2020/12/15 06:55:30;;;;;;;52.08;35.67;;;5.60;99.90;;;;;;5055133;28;20031;-74
2020/12/15 06:58:00;;;;;;;57.43;37.60;;;5.60;99.90;;;;;;5055611;28;20021;-75
2020/12/15 07:00:37;;;;;;;56.20;36.15;;;5.60;99.90;;;;;;5053609;28;20252;-74
2020/12/15 07:03:04;;;;;;;58.78;38.78;;;5.60;99.90;;;;;;5053425;28;20096;-74
2020/12/15 07:05:31;;;;;;;55.55;38.08;;;5.50;99.90;;;;;;5053773;28;20056;-75
2020/12/15 07:07:58;;;;;;;52.17;36.13;;;5.50;99.90;;;;;;5053117;28;20018;-74
2020/12/15 07:10:26;;;;;;;52.97;35.45;;;5.50;99.90;;;;;;5057644;28;20021;-75
2020/12/15 07:12:52;;;;;;;54.33;37.08;;;5.50;99.90;;;;;;5051783;28;20494;-74
2020/12/15 07:15:19;;;;;;;51.55;37.28;;;5.50;99.90;;;;;;5054371;28;20521;-75
2020/12/15 07:17:47;;;;;;;61.42;38.28;;;5.50;99.90;;;;;;5051880;28;20063;-74
2020/12/15 07:20:13;;;;;;;52.63;39.45;;;5.60;99.90;;;;;;5056377;28;20092;-74
2020/12/15 07:22:38;;;;;;;52.28;37.13;;;5.60;99.90;;;;;;5060683;28;20039;-74
2020/12/15 07:25:05;;;;;;;53.95;36.50;;;5.70;99.90;;;;;;5057264;28;20020;-74
2020/12/15 07:27:32;;;;;;;51.90;34.83;;;5.80;99.90;;;;;;5056730;28;20036;-74
2020/12/15 07:29:59;;;;;;;51.42;34.33;;;6.00;99.90;;;;;;5057196;28;20061;-74
2020/12/15 07:32:25;;;;;;;49.10;33.78;;;6.10;99.90;;;;;;5056431;28;20029;-75
2020/12/15 07:35:09;;;;;;;46.47;30.77;;;6.20;99.90;;;;;;5055247;28;20060;-74
2020/12/15 07:37:39;;;;;;;40.45;28.33;;;6.40;99.90;;;;;;5059547;28;20029;-75
2020/12/15 07:40:08;;;;;;;40.75;28.52;;;6.40;99.90;;;;;;5057438;28;20490;-74
2020/12/15 07:42:34;;;;;;;39.25;27.15;;;6.60;99.90;;;;;;5058141;28;20024;-75
2020/12/15 07:45:03;;;;;;;39.08;28.70;;;6.60;99.90;;;;;;5056769;28;20069;-74
2020/12/15 07:47:29;;;;;;;38.95;25.85;;;6.80;99.90;;;;;;5058737;28;20043;-75
2020/12/15 07:49:56;;;;;;;40.20;26.63;;;6.90;99.90;;;;;;5055924;28;20441;-74
2020/12/15 07:52:36;;;;;;;39.53;27.58;;;7.00;99.90;;;;;;5055108;28;20119;-75
2020/12/15 07:55:07;;;;;;;;;;;7.10;99.90;;;;;;5057903;28;20025;-74
2020/12/15 07:57:34;;;;;;;47.38;29.58;;;7.20;99.90;;;;;;5056505;28;20366;-75
2020/12/15 08:00:17;;;;;;;38.47;28.20;;;7.20;99.90;;;;;;5056008;28;20443;-75
2020/12/15 08:02:45;;;;;;;42.38;27.75;;;7.30;99.90;;;;;;5056041;28;20486;-75
2020/12/15 08:05:24;;;;;;;41.15;25.92;;;7.20;99.90;;;;;;5055240;28;20032;-74
2020/12/15 08:07:51;;;;;;;36.13;25.38;;;7.30;99.90;;;;;;5055837;28;20028;-75
2020/12/15 08:10:27;;;;;;;40.00;26.17;;;7.20;99.90;;;;;;5055552;28;20538;-75
2020/12/15 08:12:55;;;;;;;35.42;24.42;;;7.30;99.90;;;;;;5057632;28;20028;-74
2020/12/15 08:15:22;;;;;;;34.80;24.55;;;7.30;99.90;;;;;;5055972;28;20032;-76
2020/12/15 08:17:49;;;;;;;32.92;23.17;;;7.30;99.90;;;;;;5055006;28;20013;-76
2020/12/15 08:20:15;;;;;;;36.65;23.45;;;7.30;99.90;;;;;;5058640;28;20031;-74
2020/12/15 08:22:43;;;;;;;33.55;22.02;;;7.30;99.90;;;;;;5057334;28;20035;-75
2020/12/15 08:25:12;;;;;;;31.48;22.13;;;7.40;99.90;;;;;;5057846;28;20446;-74
2020/12/15 08:27:37;;;;;;;30.95;21.90;;;7.50;99.90;;;;;;5058564;28;20025;-75
2020/12/15 08:30:17;;;;;;;34.00;22.17;;;7.50;99.90;;;;;;5054754;28;20037;-74
2020/12/15 08:32:49;;;;;;;33.38;21.73;;;7.60;99.90;;;;;;5054455;28;20025;-74
2020/12/15 08:35:21;;;;;;;37.53;25.27;;;7.70;99.90;;;;;;5056298;28;20108;-76
2020/12/15 08:37:52;;;;;;;34.72;23.73;;;7.80;99.90;;;;;;5054326;28;20024;-75
2020/12/15 08:40:18;;;;;;;34.30;24.10;;;7.80;99.90;;;;;;5056039;28;20022;-76
2020/12/15 08:42:46;;;;;;;30.17;22.10;;;7.90;99.90;;;;;;5057334;28;20020;-75
2020/12/15 08:45:13;;;;;;;36.83;24.40;;;7.90;99.90;;;;;;5056207;28;20028;-75
2020/12/15 08:47:46;;;;;;;38.42;25.30;;;8.00;99.90;;;;;;5055408;28;20111;-74
2020/12/15 08:50:13;;;;;;;39.85;24.92;;;8.10;99.90;;;;;;5055566;28;20540;-74
2020/12/15 08:52:39;;;;;;;36.90;24.27;;;8.00;99.90;;;;;;5056762;28;20078;-75
2020/12/15 08:55:05;;;;;;;36.42;23.80;;;8.00;99.90;;;;;;5053814;28;20017;-74
2020/12/15 08:57:31;;;;;;;41.30;24.58;;;7.90;99.90;;;;;;5056897;28;20021;-75
2020/12/15 09:00:07;;;;;;;36.30;22.50;;;7.90;99.90;;;;;;5055636;28;20025;-74
2020/12/15 09:02:32;;;;;;;39.63;24.30;;;7.90;99.90;;;;;;5056115;28;20061;-76
2020/12/15 09:05:09;;;;;;;36.42;23.45;;;7.90;99.90;;;;;;5055313;28;20100;-74
2020/12/15 09:07:35;;;;;;;33.50;24.45;;;7.90;99.90;;;;;;5055594;28;20040;-75
2020/12/15 09:10:16;;;;;;;34.22;24.73;;;8.00;99.90;;;;;;5055912;28;20312;-74
2020/12/15 09:12:47;;;;;;;34.45;24.65;;;8.10;99.90;;;;;;5056857;28;20040;-74
2020/12/15 09:15:13;;;;;;;41.05;25.65;;;8.10;99.90;;;;;;5055070;28;20119;-75
2020/12/15 09:17:39;;;;;;;34.47;24.58;;;8.20;99.90;;;;;;5053920;28;20056;-75
2020/12/15 09:20:08;;;;;;;36.42;25.02;;;8.10;99.90;;;;;;5055982;28;20028;-75
2020/12/15 09:22:37;;;;;;;38.03;26.25;;;8.10;99.90;;;;;;5055309;28;20028;-76
2020/12/15 09:25:13;;;;;;;35.40;25.23;;;8.20;99.90;;;;;;5055988;28;20017;-74
2020/12/15 09:27:43;;;;;;;31.73;21.95;;;8.20;99.90;;;;;;5055686;28;20032;-76
2020/12/15 09:30:09;;;;;;;36.25;22.63;;;8.20;99.90;;;;;;5054794;28;20112;-74
2020/12/15 09:32:35;;;;;;;31.55;23.50;;;8.20;99.90;;;;;;5054296;28;20069;-74
2020/12/15 09:35:00;;;;;;;32.50;22.83;;;8.20;99.90;;;;;;5055089;28;20014;-74
2020/12/15 09:37:26;;;;;;;34.47;22.83;;;8.20;99.90;;;;;;5054304;28;20079;-74
2020/12/15 09:39:52;;;;;;;32.85;21.70;;;8.20;99.90;;;;;;5055533;28;20025;-75
2020/12/15 09:42:19;;;;;;;31.48;21.95;;;8.20;99.90;;;;;;5053182;28;20471;-76
2020/12/15 09:44:46;;;;;;;35.03;22.45;;;8.30;99.90;;;;;;5054918;28;20462;-74
2020/12/15 09:47:11;;;;;;;32.83;22.98;;;8.30;99.90;;;;;;5054450;28;20063;-76
2020/12/15 09:49:37;;;;;;;32.70;23.70;;;8.30;99.90;;;;;;5054042;28;20029;-75
2020/12/15 09:52:03;;;;;;;30.13;22.80;;;8.40;99.90;;;;;;5052931;28;20029;-75
2020/12/15 09:54:29;;;;;;;33.08;22.50;;;8.40;99.90;;;;;;5055065;28;20017;-75
2020/12/15 09:56:54;;;;;;;34.65;21.98;;;8.50;99.90;;;;;;5056172;28;20360;-75
2020/12/15 09:59:20;;;;;;;31.98;23.15;;;8.50;99.90;;;;;;5053105;28;20029;-75
2020/12/15 10:01:46;;;;;;;34.28;24.88;;;8.50;99.90;;;;;;5054132;28;20028;-75
2020/12/15 10:04:11;;;;;;;36.38;24.80;;;8.60;99.90;;;;;;5054400;28;20082;-75
2020/12/15 10:06:38;;;;;;;33.60;24.52;;;8.60;99.90;;;;;;5053256;28;20025;-74
2020/12/15 10:09:04;;;;;;;31.75;23.58;;;8.60;99.90;;;;;;5054002;28;20405;-74
2020/12/15 10:11:30;;;;;;;32.45;22.40;;;8.80;99.90;;;;;;5054418;28;20428;-75
2020/12/15 10:13:56;;;;;;;37.40;24.30;;;8.90;99.90;;;;;;5054753;28;20395;-75
2020/12/15 10:16:21;;;;;;;33.13;23.55;;;8.90;99.90;;;;;;5055556;28;20025;-76
2020/12/15 10:18:47;;;;;;;36.50;22.63;;;9.00;99.90;;;;;;5052612;28;20028;-74
2020/12/15 10:21:16;;;;;;;33.05;21.35;;;9.10;99.90;;;;;;5034683;28;20025;-76
2020/12/15 10:23:42;;;;;;;28.10;19.48;;;9.10;99.90;;;;;;5034232;28;20056;-74
2020/12/15 10:26:07;;;;;;;28.77;21.58;;;9.00;99.90;;;;;;5051346;28;20021;-74
2020/12/15 10:28:33;;;;;;;28.45;19.80;;;9.00;99.90;;;;;;5057367;28;20028;-74
2020/12/15 10:30:59;;;;;;;29.92;20.55;;;8.90;99.90;;;;;;5053914;28;20510;-75
2020/12/15 10:33:25;;;;;;;29.63;20.80;;;8.90;99.90;;;;;;5054182;28;20044;-74
2020/12/15 10:35:51;;;;;;;28.73;21.30;;;8.90;99.90;;;;;;5054183;28;20039;-75
2020/12/15 10:38:16;;;;;;;31.67;21.67;;;8.90;99.90;;;;;;5053547;28;20025;-74
2020/12/15 10:40:42;;;;;;;30.75;21.80;;;9.00;99.90;;;;;;5054194;28;20471;-75
2020/12/15 10:43:08;;;;;;;33.58;21.58;;;9.10;99.90;;;;;;5054385;28;20378;-74
2020/12/15 10:45:33;;;;;;;31.55;22.65;;;9.00;99.90;;;;;;5053687;28;20026;-75
2020/12/15 10:48:01;;;;;;;29.27;21.40;;;8.90;99.90;;;;;;5053930;28;20033;-75
2020/12/15 10:50:26;;;;;;;28.38;20.65;;;8.80;99.90;;;;;;5056920;28;20021;-75
2020/12/15 10:52:52;;;;;;;32.17;21.13;;;8.70;99.90;;;;;;5053679;28;20090;-75
2020/12/15 10:55:17;;;;;;;32.70;21.30;;;8.70;99.90;;;;;;5057584;28;20375;-74
2020/12/15 10:57:43;;;;;;;34.17;21.00;;;8.70;99.90;;;;;;5058741;28;20100;-75
2020/12/15 11:00:08;;;;;;;31.90;20.30;;;8.70;99.90;;;;;;5057937;28;20028;-75
2020/12/15 11:02:34;;;;;;;29.45;20.73;;;8.70;99.90;;;;;;5059887;28;20029;-74
2020/12/15 11:05:00;;;;;;;27.25;19.80;;;8.60;99.90;;;;;;5057616;28;20455;-76
2020/12/15 11:07:26;;;;;;;29.35;20.35;;;8.60;99.90;;;;;;5038624;28;20398;-75
2020/12/15 11:09:51;;;;;;;28.90;21.27;;;8.70;99.90;;;;;;5048583;28;20084;-75
2020/12/15 11:12:17;;;;;;;32.13;20.65;;;8.70;99.90;;;;;;5058293;28;20444;-76
2020/12/15 11:14:43;;;;;;;30.52;19.83;;;8.70;99.90;;;;;;5056162;28;20036;-74
2020/12/15 11:17:09;;;;;;;29.40;20.23;;;8.70;99.90;;;;;;5056389;28;20021;-74
2020/12/15 11:19:35;;;;;;;29.83;20.08;;;8.80;99.90;;;;;;5057229;28;20051;-75
2020/12/15 11:22:01;;;;;;;25.33;19.58;;;8.80;99.90;;;;;;5057156;28;20031;-76
2020/12/15 11:24:26;;;;;;;32.17;21.13;;;8.90;99.90;;;;;;5056846;28;20107;-75
2020/12/15 11:26:52;;;;;;;30.13;20.75;;;9.10;99.90;;;;;;5058338;28;20028;-75
2020/12/15 11:29:18;;;;;;;32.40;22.15;;;9.20;99.90;;;;;;5055039;28;20032;-75
2020/12/15 11:31:48;;;;;;;32.63;22.27;;;9.30;99.90;;;;;;5056612;28;20029;-76
2020/12/15 11:34:14;;;;;;;32.55;21.50;;;9.30;99.90;;;;;;5056129;28;20542;-74
2020/12/15 11:36:40;;;;;;;33.75;22.02;;;9.30;99.90;;;;;;5059072;28;20021;-74
2020/12/15 11:39:05;;;;;;;29.55;20.75;;;9.30;99.90;;;;;;5055660;28;20092;-75
2020/12/15 11:41:31;;;;;;;30.15;21.33;;;9.40;99.90;;;;;;5056605;28;20386;-75
2020/12/15 11:43:56;;;;;;;36.08;21.63;;;9.30;99.90;;;;;;5057937;28;20036;-74
2020/12/15 11:46:22;;;;;;;32.22;21.63;;;9.40;99.90;;;;;;5055213;28;20183;-76
2020/12/15 11:48:48;;;;;;;30.40;21.50;;;9.60;99.90;;;;;;5056431;28;20071;-74
2020/12/15 11:51:18;;;;;;;29.55;20.98;;;9.70;99.90;;;;;;5057242;28;20090;-75
2020/12/15 11:53:44;;;;;;;29.55;20.77;;;9.80;99.90;;;;;;5056052;28;20332;-75
2020/12/15 11:56:10;;;;;;;29.42;19.23;;;9.80;99.90;;;;;;5054879;28;20509;-75
2020/12/15 11:58:35;;;;;;;29.40;19.38;;;9.90;99.90;;;;;;5057155;28;20467;-76
2020/12/15 12:01:01;;;;;;;26.00;19.55;;;10.00;99.90;;;;;;5056201;28;20021;-76
2020/12/15 12:03:26;;;;;;;29.92;19.00;;;10.00;99.90;;;;;;5056297;28;20370;-75
2020/12/15 12:05:52;;;;;;;26.55;19.65;;;10.00;99.90;;;;;;5055788;28;20558;-75
2020/12/15 12:08:18;;;;;;;29.83;20.67;;;9.90;99.90;;;;;;5057671;28;20067;-76
2020/12/15 12:10:43;;;;;;;30.73;20.38;;;9.80;99.90;;;;;;5054810;28;20021;-74
2020/12/15 12:13:09;;;;;;;26.60;20.00;;;9.80;99.90;;;;;;5056957;28;20120;-74
2020/12/15 12:15:34;;;;;;;26.95;20.33;;;9.80;99.90;;;;;;5056243;28;20018;-75
2020/12/15 12:18:00;;;;;;;26.45;20.05;;;9.70;99.90;;;;;;5055965;28;20031;-75
2020/12/15 12:20:29;;;;;;;26.52;19.50;;;9.60;99.90;;;;;;5057095;28;20022;-76
2020/12/15 12:22:55;;;;;;;26.10;19.23;;;9.60;99.90;;;;;;5057317;28;20025;-74
2020/12/15 12:25:21;;;;;;;25.02;18.48;;;9.50;99.90;;;;;;5057122;28;20094;-75
2020/12/15 12:27:46;;;;;;;26.25;17.92;;;9.50;99.90;;;;;;5055789;28;20032;-74
2020/12/15 12:30:12;;;;;;;24.77;17.35;;;9.50;99.90;;;;;;5054692;28;20040;-74
2020/12/15 12:32:38;;;;;;;24.38;17.40;;;9.60;99.90;;;;;;5054029;28;20056;-74
2020/12/15 12:35:04;;;;;;;26.88;17.42;;;9.60;99.90;;;;;;5055497;28;20021;-75
2020/12/15 12:37:30;;;;;;;25.20;16.50;;;9.50;99.90;;;;;;5057209;28;20021;-74